Terminal Aerodrome Forecast
Issued by NWS

Home | Current Version | Previous Version | Text Only | Print | Product List | Glossary On
Versions: 1 2 3 4 5 6 7 8 9 10 11 12
000
FTUS43 KTOP 041120
TAFFOE
TAF
KFOE 041120Z 0412/0512 10006KT P6SM SCT060 BKN200
     FM042100 18009KT 5SM TSRA SCT050CB BKN150
     FM050600 14005KT 4SM TSRA SCT007 BKN035CB=

USA.gov is the U.S. government's official web portal to all federal, state and local government web resources and services.